Details for EasyJet at EGGD




Go Back


Latest METAR
Local Time

EGGD 250450Z AUTO 04009KT 4600 RA NCD 12/12 Q1018

25/05/2018, 05:57:25

Description
Results
EasyJet Logo
Number of Pilots based at EGGD
2 Pilots Based here
Number of EasyJet Flights Departed from EGGD
13 Flights Departed
Number of EasyJet Flights Arrived at EGGD
11 Flights Arrived
Number of EasyJet Schedules Departing from EGGD
214 Schedules
Number of EasyJet Schedules Arriving at EGGD
212 Schedules
Number of EasyJet Schedules Departing from EGGD availible today
75 Schedules Today
Number of EasyJet Schedules Arriving at EGGD availible today
76 Schedules Today
Average Landing Rate at EGGD
-228 fpm
EasyJet Average Landing Rate at EGGD
-230 fpm
Total Fuel Purchased at EGGD by EasyJet
62,180.73 kgs / 137,083.64 lbs

Pilots Based at EGGD


Pilot ID
Pilot Name
Pilot Rank
No. of Flights
No. of Flying Hours
Mark Callison
828
2376.33
Justin Fryer
1
2.32
Content